Terminal Aerodrome Forecast
Issued by NWS Wilmington, OH

Home | Current Version | Previous Version | Text Only | Print | Product List | Glossary On
Versions: 1 2 3 4 5 6 7 8 9 10 11 12 13 14 15 16 17 18 19 20 21 22 23 24 25 26 27 28
000
FTUS41 KILN 230200 AAA
TAFILN
TAF AMD
KILN 230253Z 2303/2324 00000KT 1SM BR FEW035 SCT250
      TEMPO 2303/2306 1/4SM FG
     FM230600 00000KT 1/4SM FG VV001
     FM231300 00000KT 4SM BR BKN012
     FM231500 09003KT P6SM BKN018
     FM231700 10005KT P6SM BKN035=

USA.gov is the U.S. government's official web portal to all federal, state and local government web resources and services.